createdAt,value
2023-09-07T00:00:18.025Z,24.17
2023-09-07T00:02:45.811Z,23.53
2023-09-07T00:05:14.339Z,28.00
2023-09-07T00:07:41.838Z,23.50
2023-09-07T00:10:09.787Z,22.03
2023-09-07T00:12:38.850Z,23.37
2023-09-07T00:15:07.509Z,26.40
2023-09-07T00:17:34.971Z,36.13
2023-09-07T00:20:04.065Z,27.13
2023-09-07T00:22:32.283Z,23.70
2023-09-07T00:24:59.735Z,22.67
2023-09-07T00:27:27.125Z,23.27
2023-09-07T00:29:54.571Z,22.80
2023-09-07T00:32:22.137Z,23.27
2023-09-07T00:34:49.568Z,21.63
2023-09-07T00:37:17.033Z,23.60
2023-09-07T00:39:44.530Z,23.27
2023-09-07T00:42:11.972Z,24.60
2023-09-07T00:44:39.406Z,24.57
2023-09-07T00:47:06.973Z,21.80
2023-09-07T00:49:34.431Z,23.53
2023-09-07T00:52:01.893Z,22.60
2023-09-07T00:54:31.417Z,26.00
2023-09-07T00:57:01.047Z,23.20
2023-09-07T00:59:29.071Z,22.87
2023-09-07T01:01:56.612Z,22.60
2023-09-07T01:04:24.418Z,24.63
2023-09-07T01:06:56.288Z,22.90
2023-09-07T01:09:25.636Z,23.27
2023-09-07T01:11:53.937Z,22.40
2023-09-07T01:14:21.460Z,23.60
2023-09-07T01:16:49.088Z,22.00
2023-09-07T01:19:16.648Z,25.30
2023-09-07T01:21:44.688Z,22.87
2023-09-07T01:24:13.192Z,27.53
2023-09-07T01:26:40.691Z,24.03
2023-09-07T01:29:09.196Z,24.10
2023-09-07T01:31:37.829Z,23.10
2023-09-07T01:34:05.777Z,24.30
2023-09-07T01:36:33.489Z,24.30
2023-09-07T01:39:00.960Z,23.70
2023-09-07T01:41:29.960Z,23.00
2023-09-07T01:43:57.688Z,23.57
2023-09-07T01:46:25.309Z,24.07
2023-09-07T01:48:52.854Z,24.53
2023-09-07T01:51:20.307Z,22.77
2023-09-07T01:53:51.122Z,22.77
2023-09-07T01:56:18.812Z,26.10
2023-09-07T01:58:46.246Z,22.70
2023-09-07T02:01:23.537Z,25.50
2023-09-07T02:03:50.984Z,23.03
2023-09-07T02:06:19.048Z,24.10
2023-09-07T02:08:46.481Z,22.87
2023-09-07T02:11:13.985Z,25.83
2023-09-07T02:13:44.526Z,22.67
2023-09-07T02:16:11.934Z,23.87
2023-09-07T02:18:41.001Z,23.10
2023-09-07T02:21:08.413Z,22.80
2023-09-07T02:23:37.549Z,23.17
2023-09-07T02:26:05.214Z,23.00
2023-09-07T02:28:33.332Z,23.80
2023-09-07T02:31:04.619Z,23.87
2023-09-07T02:33:32.143Z,22.30
2023-09-07T02:36:00.210Z,24.63
2023-09-07T02:38:27.723Z,22.50
2023-09-07T02:40:56.987Z,22.30
2023-09-07T02:43:24.406Z,24.00
2023-09-07T02:45:52.091Z,23.33
2023-09-07T02:48:19.609Z,24.77
2023-09-07T02:50:48.690Z,24.00
2023-09-07T02:53:16.059Z,22.37
2023-09-07T02:55:43.564Z,24.23
2023-09-07T02:58:11.173Z,21.47
2023-09-07T03:00:40.251Z,22.37
2023-09-07T03:03:07.829Z,21.00
2023-09-07T03:05:36.189Z,25.10
2023-09-07T03:08:04.491Z,21.40
2023-09-07T03:10:31.976Z,22.00
2023-09-07T03:12:59.355Z,21.10
2023-09-07T03:15:27.497Z,21.57
2023-09-07T03:17:55.003Z,22.93
2023-09-07T03:20:22.496Z,22.10
2023-09-07T03:22:49.980Z,21.20
2023-09-07T03:25:17.497Z,21.03
2023-09-07T03:27:45.023Z,24.30
2023-09-07T03:30:12.629Z,22.50
2023-09-07T03:32:40.219Z,22.40
2023-09-07T03:35:09.447Z,22.50
2023-09-07T03:37:38.931Z,21.70
2023-09-07T03:40:07.428Z,22.87
2023-09-07T03:42:34.851Z,22.30
2023-09-07T03:45:02.689Z,22.40
2023-09-07T03:47:30.537Z,24.73
2023-09-07T03:49:59.895Z,21.97
2023-09-07T03:52:27.704Z,22.83
2023-09-07T03:54:56.776Z,23.03
2023-09-07T03:57:24.839Z,21.80
2023-09-07T03:59:52.266Z,25.00
2023-09-07T04:02:20.563Z,21.40
2023-09-07T04:04:51.806Z,24.13
2023-09-07T04:07:19.264Z,27.97
2023-09-07T04:09:46.856Z,21.57
2023-09-07T04:12:14.561Z,23.43
2023-09-07T04:14:43.905Z,21.97
2023-09-07T04:17:11.310Z,23.70
2023-09-07T04:19:39.556Z,25.03
2023-09-07T04:22:07.051Z,22.57
2023-09-07T04:24:34.525Z,22.43
2023-09-07T04:27:02.727Z,22.20
2023-09-07T04:29:30.586Z,23.00
2023-09-07T04:31:58.182Z,24.07
2023-09-07T04:34:25.828Z,26.53
2023-09-07T04:36:53.479Z,22.70
2023-09-07T04:39:20.974Z,25.70
2023-09-07T04:41:48.480Z,23.80
2023-09-07T04:44:16.084Z,27.30
2023-09-07T04:46:43.574Z,23.80
2023-09-07T04:49:11.056Z,22.07
2023-09-07T04:51:38.470Z,24.03
2023-09-07T04:54:05.945Z,26.17
2023-09-07T04:56:33.453Z,23.00
2023-09-07T04:59:00.863Z,23.90
2023-09-07T05:01:28.330Z,23.17
2023-09-07T05:03:56.228Z,23.57
2023-09-07T05:06:27.332Z,21.67
2023-09-07T05:08:54.799Z,24.27
2023-09-07T05:11:22.274Z,24.00
2023-09-07T05:13:49.676Z,25.63
2023-09-07T05:16:17.185Z,26.40
2023-09-07T05:18:44.781Z,26.60
2023-09-07T05:21:13.176Z,23.87
2023-09-07T05:23:40.606Z,21.30
2023-09-07T05:26:08.024Z,23.40
2023-09-07T05:28:35.540Z,23.80
2023-09-07T05:31:03.047Z,24.53
2023-09-07T05:33:30.812Z,21.80
2023-09-07T05:35:58.428Z,24.63
2023-09-07T05:38:25.866Z,25.27
2023-09-07T05:40:55.596Z,23.67
2023-09-07T05:43:23.141Z,23.07
2023-09-07T05:45:50.551Z,22.03
2023-09-07T05:48:19.052Z,22.53
2023-09-07T05:50:47.134Z,22.33
2023-09-07T05:53:14.573Z,21.67
2023-09-07T05:55:42.058Z,23.20
2023-09-07T05:58:10.029Z,22.33
2023-09-07T06:00:39.482Z,25.43
2023-09-07T06:03:08.592Z,22.13
2023-09-07T06:05:37.784Z,22.80
2023-09-07T06:08:05.396Z,23.70
2023-09-07T06:10:32.850Z,22.63
2023-09-07T06:13:01.571Z,22.93
2023-09-07T06:15:29.313Z,22.93
2023-09-07T06:17:56.772Z,24.50
2023-09-07T06:20:24.209Z,21.73
2023-09-07T06:22:51.701Z,21.90
2023-09-07T06:25:19.256Z,21.07
2023-09-07T06:27:46.728Z,20.57
2023-09-07T06:30:14.133Z,22.80
2023-09-07T06:32:42.362Z,22.50
2023-09-07T06:35:11.430Z,30.10
2023-09-07T06:37:40.632Z,25.57
2023-09-07T06:40:09.228Z,28.10
2023-09-07T06:42:36.726Z,23.50
2023-09-07T06:45:04.237Z,24.03
2023-09-07T06:47:31.811Z,25.47
2023-09-07T06:49:59.329Z,23.07
2023-09-07T06:52:26.852Z,24.67
2023-09-07T06:54:57.226Z,29.00
2023-09-07T06:57:24.682Z,24.07
2023-09-07T06:59:52.058Z,26.67
2023-09-07T07:02:19.495Z,25.63
2023-09-07T07:04:47.359Z,25.43
2023-09-07T07:07:14.944Z,25.23
2023-09-07T07:09:42.390Z,26.17
2023-09-07T07:12:09.825Z,30.50
2023-09-07T07:14:37.271Z,33.83
2023-09-07T07:17:05.913Z,32.77
2023-09-07T07:19:34.026Z,56.60
2023-09-07T07:22:01.553Z,29.40
2023-09-07T07:24:28.988Z,91.77
2023-09-07T07:26:56.440Z,44.20
2023-09-07T07:29:24.085Z,55.47
2023-09-07T07:31:51.680Z,78.47
2023-09-07T07:34:19.083Z,28.10
2023-09-07T07:36:46.513Z,26.77
2023-09-07T07:39:13.994Z,24.33
2023-09-07T07:41:43.538Z,25.03
2023-09-07T07:44:10.540Z,21.27
2023-09-07T07:46:38.057Z,29.53
2023-09-07T07:49:05.802Z,27.90
2023-09-07T07:51:33.208Z,23.80
2023-09-07T07:54:00.853Z,27.47
2023-09-07T07:56:29.644Z,30.03
2023-09-07T07:58:57.801Z,45.90
2023-09-07T08:01:26.938Z,36.63
2023-09-07T08:03:55.014Z,49.47
2023-09-07T08:06:22.508Z,47.77
2023-09-07T08:08:49.986Z,46.63
2023-09-07T08:11:17.892Z,35.63
2023-09-07T08:13:47.024Z,62.27
2023-09-07T08:16:14.977Z,81.43
2023-09-07T08:18:42.658Z,92.30
2023-09-07T08:21:10.116Z,48.97
2023-09-07T08:23:37.699Z,82.47
2023-09-07T08:26:06.306Z,144.80
2023-09-07T08:28:34.049Z,41.30
2023-09-07T08:31:02.541Z,145.80
2023-09-07T08:33:31.177Z,127.33
2023-09-07T08:36:00.362Z,69.57
2023-09-07T08:38:28.940Z,129.33
2023-09-07T08:40:57.430Z,136.53
2023-09-07T08:43:25.591Z,247.77
2023-09-07T08:45:56.266Z,109.23
2023-09-07T08:48:24.255Z,137.87
2023-09-07T08:50:53.149Z,137.07
2023-09-07T08:53:23.696Z,112.00
2023-09-07T08:55:51.135Z,145.67
2023-09-07T08:58:18.591Z,147.40
2023-09-07T09:00:47.086Z,173.00
2023-09-07T09:03:14.693Z,134.37
2023-09-07T09:05:42.590Z,176.70
2023-09-07T09:08:11.963Z,108.57
2023-09-07T09:10:42.883Z,347.80
2023-09-07T09:13:12.200Z,102.80
2023-09-07T09:15:39.648Z,123.10
2023-09-07T09:18:12.680Z,175.47
2023-09-07T09:20:40.589Z,51.13
2023-09-07T09:23:08.703Z,114.43
2023-09-07T09:25:36.312Z,119.33
2023-09-07T09:28:04.101Z,113.40
2023-09-07T09:30:31.659Z,107.87
2023-09-07T09:33:00.249Z,96.50
2023-09-07T09:35:27.800Z,89.83
2023-09-07T09:37:55.224Z,82.90
2023-09-07T09:40:22.978Z,85.40
2023-09-07T09:42:50.788Z,82.13
2023-09-07T09:45:18.832Z,121.77
2023-09-07T09:47:46.826Z,88.23
2023-09-07T09:50:14.244Z,121.20
2023-09-07T09:52:41.714Z,49.50
2023-09-07T09:55:09.801Z,88.03
2023-09-07T09:57:37.633Z,88.17
2023-09-07T10:00:09.715Z,100.10
2023-09-07T10:02:38.779Z,71.90
2023-09-07T10:05:08.469Z,78.60
2023-09-07T10:07:43.463Z,63.13
2023-09-07T10:10:12.239Z,79.43
2023-09-07T10:12:43.396Z,113.00
2023-09-07T10:15:26.749Z,37.90
2023-09-07T10:18:06.967Z,55.07
2023-09-07T10:20:38.645Z,84.77
2023-09-07T10:23:06.398Z,81.17
2023-09-07T10:25:35.380Z,122.97
2023-09-07T10:28:03.704Z,88.13
2023-09-07T10:30:32.910Z,130.33
2023-09-07T10:33:00.425Z,99.90
2023-09-07T10:35:29.604Z,86.77
2023-09-07T10:37:57.494Z,93.77
2023-09-07T10:40:26.560Z,105.73
2023-09-07T10:42:55.578Z,105.50
2023-09-07T10:45:23.053Z,201.37
2023-09-07T10:47:50.495Z,197.43
2023-09-07T10:50:18.248Z,162.70
2023-09-07T10:52:45.675Z,143.53
2023-09-07T10:55:14.257Z,217.83
2023-09-07T10:57:45.754Z,214.87
2023-09-07T11:00:14.714Z,258.87
2023-09-07T11:02:43.195Z,211.13
2023-09-07T11:05:12.423Z,318.47
2023-09-07T11:07:41.709Z,163.37
2023-09-07T11:10:09.444Z,219.70
2023-09-07T11:12:40.063Z,307.40
2023-09-07T11:15:09.161Z,253.30
2023-09-07T11:17:38.161Z,119.63
2023-09-07T11:20:09.085Z,236.60
2023-09-07T11:22:43.946Z,343.53
2023-09-07T11:25:08.285Z,295.87
2023-09-07T11:27:35.718Z,243.37
2023-09-07T11:30:04.856Z,296.07
2023-09-07T11:32:36.935Z,299.00
2023-09-07T11:35:06.343Z,321.13
2023-09-07T11:37:33.755Z,299.37
2023-09-07T11:40:01.239Z,347.33
2023-09-07T11:42:28.659Z,326.10
2023-09-07T11:44:56.103Z,307.27
2023-09-07T11:47:23.569Z,300.17
2023-09-07T11:49:52.083Z,277.93
2023-09-07T11:52:23.232Z,289.03
2023-09-07T11:54:50.637Z,228.80
2023-09-07T11:57:18.092Z,281.47
2023-09-07T11:59:56.602Z,237.63
2023-09-07T12:02:16.137Z,155.80
2023-09-07T12:04:43.888Z,210.67
2023-09-07T12:07:11.990Z,253.77
2023-09-07T12:09:39.486Z,228.47
2023-09-07T12:12:07.763Z,207.83
2023-09-07T12:14:35.218Z,215.47
2023-09-07T12:17:02.813Z,202.83
2023-09-07T12:19:30.567Z,237.87
2023-09-07T12:21:58.006Z,227.27
2023-09-07T12:24:25.481Z,193.23
2023-09-07T12:26:53.036Z,215.63
2023-09-07T12:29:21.248Z,123.83
2023-09-07T12:31:48.708Z,150.37
2023-09-07T12:34:16.111Z,103.27
2023-09-07T12:36:43.625Z,141.07
2023-09-07T12:39:12.735Z,119.37
2023-09-07T12:41:40.514Z,134.50
2023-09-07T12:44:08.131Z,53.67
2023-09-07T12:46:36.431Z,41.63
2023-09-07T12:49:04.050Z,67.73
2023-09-07T12:51:31.817Z,119.63
2023-09-07T12:53:59.239Z,201.00
2023-09-07T12:56:27.157Z,176.73
2023-09-07T12:58:55.125Z,196.67
2023-09-07T13:01:22.649Z,285.57
2023-09-07T13:03:50.231Z,166.20
2023-09-07T13:06:18.399Z,120.77
2023-09-07T13:08:46.307Z,76.10
2023-09-07T13:11:13.722Z,94.40
2023-09-07T13:13:41.206Z,96.20
2023-09-07T13:16:08.650Z,83.07
2023-09-07T13:18:36.062Z,109.80
2023-09-07T13:21:03.546Z,50.83
2023-09-07T13:23:32.295Z,60.70
2023-09-07T13:26:01.561Z,91.70
2023-09-07T13:28:28.999Z,59.40
2023-09-07T13:30:58.042Z,69.80
2023-09-07T13:33:26.315Z,80.13
2023-09-07T13:35:53.726Z,46.50
2023-09-07T13:38:21.191Z,34.43
2023-09-07T13:40:48.721Z,30.40
2023-09-07T13:43:16.166Z,46.53
2023-09-07T13:45:44.956Z,62.17
2023-09-07T13:48:12.468Z,51.97
2023-09-07T13:50:39.833Z,33.50
2023-09-07T13:53:07.265Z,65.07
2023-09-07T13:55:35.072Z,50.13
2023-09-07T13:58:02.565Z,45.03
2023-09-07T14:00:29.988Z,49.47
2023-09-07T14:02:57.551Z,35.40
2023-09-07T14:05:25.019Z,48.13
2023-09-07T14:07:52.437Z,25.50
2023-09-07T14:10:19.870Z,57.77
2023-09-07T14:12:49.354Z,49.03
2023-09-07T14:15:16.790Z,32.13
2023-09-07T14:17:44.289Z,64.03
2023-09-07T14:20:11.947Z,42.70
2023-09-07T14:22:39.403Z,48.70
2023-09-07T14:25:08.500Z,30.27
2023-09-07T14:27:35.926Z,41.50
2023-09-07T14:30:03.562Z,53.83
2023-09-07T14:32:30.961Z,76.67
2023-09-07T14:34:58.462Z,41.70
2023-09-07T14:37:25.943Z,37.60
2023-09-07T14:39:54.975Z,50.53
2023-09-07T14:42:22.502Z,32.70
2023-09-07T14:44:49.975Z,30.67
2023-09-07T14:47:17.513Z,37.10
2023-09-07T14:49:45.125Z,41.30
2023-09-07T14:52:12.586Z,50.43
2023-09-07T14:54:41.701Z,41.90
2023-09-07T14:57:10.094Z,37.97
2023-09-07T14:59:40.108Z,36.47
2023-09-07T15:02:07.935Z,59.20
2023-09-07T15:04:35.766Z,40.57
2023-09-07T15:07:03.620Z,64.00
2023-09-07T15:09:31.059Z,33.63
2023-09-07T15:11:59.554Z,37.40
2023-09-07T15:14:27.387Z,32.03
2023-09-07T15:16:54.853Z,27.67
2023-09-07T15:19:22.331Z,62.90
2023-09-07T15:21:49.754Z,31.43
2023-09-07T15:24:17.233Z,41.90
2023-09-07T15:26:45.287Z,39.80
2023-09-07T15:29:13.652Z,34.67
2023-09-07T15:31:42.579Z,39.97
2023-09-07T15:34:10.688Z,39.70
2023-09-07T15:36:38.282Z,48.70
2023-09-07T15:39:06.344Z,30.30
2023-09-07T15:41:33.830Z,45.00
2023-09-07T15:44:01.256Z,38.97
2023-09-07T15:46:28.738Z,51.13
2023-09-07T15:48:56.113Z,60.27
2023-09-07T15:51:23.693Z,36.73
2023-09-07T15:53:51.128Z,59.27
2023-09-07T15:56:18.609Z,42.60
2023-09-07T15:58:46.098Z,38.67
2023-09-07T16:01:13.582Z,39.27
2023-09-07T16:03:41.060Z,51.43
2023-09-07T16:06:08.529Z,61.47
2023-09-07T16:08:36.808Z,43.50
2023-09-07T16:11:04.343Z,54.10
2023-09-07T16:13:33.450Z,47.20
2023-09-07T16:16:01.141Z,121.97
2023-09-07T16:18:28.611Z,107.57
2023-09-07T16:20:57.006Z,101.50
2023-09-07T16:23:24.962Z,88.90
2023-09-07T16:25:52.354Z,106.97
2023-09-07T16:28:19.813Z,56.60
2023-09-07T16:30:47.258Z,117.10
2023-09-07T16:33:14.839Z,96.73
2023-09-07T16:35:45.660Z,122.97
2023-09-07T16:38:13.059Z,88.63
2023-09-07T16:40:40.517Z,140.67
2023-09-07T16:43:07.932Z,117.13
2023-09-07T16:45:35.395Z,233.60
2023-09-07T16:48:02.970Z,132.67
2023-09-07T16:50:30.524Z,179.13
2023-09-07T16:52:57.944Z,179.13
2023-09-07T16:55:25.502Z,214.30
2023-09-07T16:57:52.963Z,152.70
2023-09-07T17:00:20.428Z,248.23
2023-09-07T17:02:47.979Z,153.03
2023-09-07T17:05:16.034Z,252.97
2023-09-07T17:07:43.676Z,252.50
2023-09-07T17:10:11.207Z,316.80
2023-09-07T17:12:38.649Z,296.53
2023-09-07T17:15:06.473Z,308.20
2023-09-07T17:17:33.995Z,248.83
2023-09-07T17:20:01.706Z,72.57
2023-09-07T17:22:29.169Z,96.70
2023-09-07T17:24:56.678Z,128.20
2023-09-07T17:27:24.119Z,36.63
2023-09-07T17:29:51.722Z,38.30
2023-09-07T17:32:19.185Z,43.93
2023-09-07T17:34:46.818Z,92.57
2023-09-07T17:37:14.354Z,42.83
2023-09-07T17:39:41.852Z,115.27
2023-09-07T17:42:09.314Z,180.40
2023-09-07T17:44:36.756Z,60.00
2023-09-07T17:47:04.176Z,62.43
2023-09-07T17:49:31.598Z,40.60
2023-09-07T17:51:59.097Z,253.20
2023-09-07T17:54:27.550Z,219.90
2023-09-07T17:56:55.036Z,64.27
2023-09-07T17:59:22.509Z,133.47
2023-09-07T18:01:50.069Z,152.13
2023-09-07T18:04:17.696Z,201.63
2023-09-07T18:06:45.236Z,56.60
2023-09-07T18:09:13.063Z,137.87
2023-09-07T18:11:45.017Z,79.33
2023-09-07T18:14:17.817Z,90.30
2023-09-07T18:16:45.783Z,56.40
2023-09-07T18:19:15.130Z,90.23
2023-09-07T18:21:42.633Z,62.27
2023-09-07T18:24:10.200Z,35.87
2023-09-07T18:26:37.686Z,27.97
2023-09-07T18:29:05.203Z,41.57
2023-09-07T18:31:32.793Z,42.03
2023-09-07T18:34:00.403Z,29.10
2023-09-07T18:36:28.003Z,33.57
2023-09-07T18:38:55.444Z,26.03
2023-09-07T18:41:22.909Z,30.80
2023-09-07T18:43:51.996Z,29.27
2023-09-07T18:46:19.580Z,29.43
2023-09-07T18:48:47.198Z,28.67
2023-09-07T18:51:14.660Z,26.70
2023-09-07T18:53:42.645Z,33.20
2023-09-07T18:56:10.463Z,29.13
2023-09-07T18:58:38.070Z,26.20
2023-09-07T19:01:15.228Z,28.03
2023-09-07T19:03:44.244Z,26.60
2023-09-07T19:06:11.663Z,26.70
2023-09-07T19:08:39.124Z,25.00
2023-09-07T19:11:06.672Z,25.53
2023-09-07T19:13:34.078Z,25.80
2023-09-07T19:16:01.664Z,24.87
2023-09-07T19:18:29.186Z,23.87
2023-09-07T19:21:05.167Z,27.60
2023-09-07T19:23:26.228Z,27.90
2023-09-07T19:25:53.709Z,25.57
2023-09-07T19:28:21.341Z,25.40
2023-09-07T19:30:48.832Z,27.07
2023-09-07T19:33:17.395Z,26.30
2023-09-07T19:35:44.963Z,28.53
2023-09-07T19:38:12.738Z,26.00
2023-09-07T19:40:40.081Z,27.23
2023-09-07T19:43:07.567Z,28.97
2023-09-07T19:45:35.050Z,26.57
2023-09-07T19:48:02.504Z,26.10
2023-09-07T19:50:30.075Z,27.10
2023-09-07T19:52:57.591Z,23.43
2023-09-07T19:55:25.008Z,25.33
2023-09-07T19:57:52.462Z,33.13
2023-09-07T20:00:19.959Z,27.07
2023-09-07T20:02:47.450Z,24.47
2023-09-07T20:05:15.004Z,23.40
2023-09-07T20:07:44.235Z,24.10
2023-09-07T20:10:11.773Z,27.80
2023-09-07T20:12:39.383Z,24.00
2023-09-07T20:15:07.248Z,26.70
2023-09-07T20:17:37.172Z,24.00
2023-09-07T20:20:04.482Z,24.13
2023-09-07T20:22:32.031Z,33.47
2023-09-07T20:24:59.447Z,31.40
2023-09-07T20:27:27.150Z,25.87
2023-09-07T20:29:54.688Z,22.93
2023-09-07T20:32:22.209Z,26.93
2023-09-07T20:34:49.819Z,22.90
2023-09-07T20:37:17.979Z,35.33
2023-09-07T20:39:45.392Z,25.73
2023-09-07T20:42:14.514Z,27.23
2023-09-07T20:44:41.928Z,24.57
2023-09-07T20:47:09.392Z,26.73
2023-09-07T20:49:36.832Z,26.20
2023-09-07T20:52:04.342Z,21.87
2023-09-07T20:54:31.778Z,25.67
2023-09-07T20:56:59.271Z,24.13
2023-09-07T20:59:28.218Z,23.77
2023-09-07T21:01:55.668Z,25.77
2023-09-07T21:04:23.428Z,22.70
2023-09-07T21:06:51.057Z,23.40
2023-09-07T21:09:19.451Z,25.53
2023-09-07T21:11:47.612Z,27.63
2023-09-07T21:14:15.197Z,23.73
2023-09-07T21:16:42.887Z,24.43
2023-09-07T21:19:10.366Z,25.67
2023-09-07T21:21:37.848Z,22.23
2023-09-07T21:24:05.455Z,26.40
2023-09-07T21:26:35.929Z,27.80
2023-09-07T21:29:03.449Z,24.17
2023-09-07T21:31:31.038Z,23.80
2023-09-07T21:33:58.537Z,24.20
2023-09-07T21:36:25.998Z,24.93
2023-09-07T21:38:53.480Z,23.90
2023-09-07T21:41:20.899Z,24.87
2023-09-07T21:43:48.331Z,24.30
2023-09-07T21:46:15.911Z,26.37
2023-09-07T21:48:43.414Z,25.70
2023-09-07T21:51:10.874Z,24.27
2023-09-07T21:53:40.923Z,24.50
2023-09-07T21:56:09.014Z,23.47
2023-09-07T21:58:37.162Z,26.03
2023-09-07T22:01:04.632Z,24.20
2023-09-07T22:03:32.491Z,24.77
2023-09-07T22:06:00.117Z,23.63
2023-09-07T22:08:27.907Z,22.63
2023-09-07T22:10:55.352Z,27.53
2023-09-07T22:13:22.859Z,23.03
2023-09-07T22:15:50.243Z,26.17
2023-09-07T22:18:17.724Z,24.47
2023-09-07T22:20:45.284Z,24.43
2023-09-07T22:23:12.828Z,25.50
2023-09-07T22:25:40.373Z,25.87
2023-09-07T22:28:09.462Z,30.87
2023-09-07T22:30:37.515Z,26.70
2023-09-07T22:33:06.569Z,24.57
2023-09-07T22:35:34.675Z,24.60
2023-09-07T22:38:03.384Z,27.00
2023-09-07T22:40:32.366Z,23.60
2023-09-07T22:43:01.452Z,26.00
2023-09-07T22:45:28.892Z,27.60
2023-09-07T22:47:56.299Z,23.33
2023-09-07T22:50:23.731Z,24.17
2023-09-07T22:52:51.166Z,25.57
2023-09-07T22:55:20.138Z,26.83
2023-09-07T22:57:47.646Z,23.73
2023-09-07T23:00:16.490Z,23.10
2023-09-07T23:02:44.103Z,23.97
2023-09-07T23:05:11.583Z,26.10
2023-09-07T23:07:39.065Z,23.27
2023-09-07T23:10:06.568Z,24.00
2023-09-07T23:12:34.749Z,23.43
2023-09-07T23:15:02.221Z,23.20
2023-09-07T23:17:29.893Z,27.20
2023-09-07T23:19:57.768Z,25.70
2023-09-07T23:22:25.216Z,26.63
2023-09-07T23:24:52.693Z,24.47
2023-09-07T23:27:20.245Z,27.30
2023-09-07T23:29:47.665Z,23.90
2023-09-07T23:32:15.517Z,22.47
2023-09-07T23:34:42.950Z,24.53
2023-09-07T23:37:10.457Z,23.33
2023-09-07T23:39:38.005Z,24.13
2023-09-07T23:42:05.444Z,23.10
2023-09-07T23:44:32.937Z,24.37
2023-09-07T23:47:01.177Z,23.10
2023-09-07T23:49:28.586Z,26.23
2023-09-07T23:51:56.028Z,24.60
2023-09-07T23:54:23.383Z,25.60
2023-09-07T23:56:50.835Z,25.23
2023-09-07T23:59:18.299Z,26.83
